Time;durP1;ratioP1;P1;durP2;ratioP2;P2;SDS_P1;SDS_P2;PMS_P1;PMS_P2;Temp;Humidity;BMP_temperature;BMP_pressure;BME280_temperature;BME280_humidity;BME280_pressure;Samples;Min_cycle;Max_cycle;Signal;HPM_P1;HPM_P2
2021/10/13 00:01:28;;;;;;;1.30;1.00;;;9.10;98.00;;;;;;5052442;28;20462;-68
2021/10/13 00:03:55;;;;;;;1.20;1.00;;;8.90;98.00;;;;;;5034918;28;20485;-68
2021/10/13 00:06:24;;;;;;;1.20;1.07;;;8.90;98.00;;;;;;5051862;28;20519;-67
2021/10/13 00:08:52;;;;;;;1.20;1.00;;;9.00;98.00;;;;;;5052576;28;20461;-68
2021/10/13 00:11:19;;;;;;;1.20;1.00;;;9.00;98.00;;;;;;5052507;28;20482;-67
2021/10/13 00:13:46;;;;;;;1.30;1.10;;;8.90;98.00;;;;;;5052826;28;20876;-69
2021/10/13 00:16:14;;;;;;;1.20;1.10;;;8.80;98.00;;;;;;5052593;28;20511;-68
2021/10/13 00:18:41;;;;;;;1.33;1.00;;;8.80;98.00;;;;;;5034722;28;20450;-68
2021/10/13 00:21:08;;;;;;;1.50;1.03;;;8.80;98.00;;;;;;5052510;28;20483;-69
2021/10/13 00:23:36;;;;;;;1.20;1.00;;;8.90;98.00;;;;;;5052136;28;20555;-67
2021/10/13 00:26:03;;;;;;;1.50;1.30;;;8.90;98.00;;;;;;5052391;28;20495;-68
2021/10/13 00:28:30;;;;;;;2.30;1.27;;;8.90;98.00;;;;;;5052492;28;20499;-68
2021/10/13 00:30:57;;;;;;;2.10;1.33;;;8.90;98.00;;;;;;5052314;28;20939;-67
2021/10/13 00:33:24;;;;;;;1.23;1.20;;;8.90;98.00;;;;;;5052321;28;20462;-68
2021/10/13 00:35:51;;;;;;;1.77;1.30;;;8.90;98.00;;;;;;5034562;28;20460;-67
2021/10/13 00:38:18;;;;;;;1.20;1.10;;;8.90;98.00;;;;;;5051614;28;20484;-68
2021/10/13 00:40:49;;;;;;;1.20;1.00;;;8.80;98.00;;;;;;5052047;28;20502;-67
2021/10/13 00:43:16;;;;;;;1.20;1.00;;;9.10;98.00;;;;;;5051945;28;20454;-69
2021/10/13 00:45:43;;;;;;;1.20;1.00;;;9.20;98.00;;;;;;5034368;28;20558;-69
2021/10/13 00:48:10;;;;;;;1.27;1.20;;;9.30;98.00;;;;;;5051808;28;20466;-68
2021/10/13 00:50:38;;;;;;;1.20;0.90;;;9.40;98.00;;;;;;5051815;28;20451;-67
2021/10/13 00:53:05;;;;;;;1.20;1.00;;;9.40;98.00;;;;;;5051783;28;20960;-68
2021/10/13 00:55:32;;;;;;;1.30;1.10;;;9.40;98.00;;;;;;5051640;28;20481;-67
2021/10/13 00:58:00;;;;;;;1.60;1.30;;;9.40;98.00;;;;;;5051521;28;21059;-67
2021/10/13 01:00:27;;;;;;;2.43;1.30;;;9.50;98.00;;;;;;5034181;28;20457;-68
2021/10/13 01:03:04;;;;;;;1.47;1.23;;;9.40;98.00;;;;;;5033894;28;20492;-69
2021/10/13 01:05:49;;;;;;;1.40;1.00;;;9.30;98.00;;;;;;5051583;28;20497;-70
2021/10/13 01:08:28;;;;;;;1.30;1.00;;;9.30;98.00;;;;;;5051384;28;20496;-68
2021/10/13 01:11:03;;;;;;;1.20;1.00;;;9.30;98.00;;;;;;5051068;28;20466;-70
2021/10/13 01:13:44;;;;;;;1.20;0.97;;;9.30;98.00;;;;;;5050701;28;20496;-68
2021/10/13 01:16:18;;;;;;;1.20;0.90;;;9.20;98.00;;;;;;5050921;28;20832;-69
2021/10/13 01:18:54;;;;;;;1.90;1.33;;;9.10;98.00;;;;;;5055722;28;20533;-69
2021/10/13 01:21:37;;;;;;;1.30;1.20;;;9.20;98.00;;;;;;5055740;28;20546;-67
2021/10/13 01:24:33;;;;;;;1.20;1.10;;;9.30;98.00;;;;;;5055680;28;20523;-68
2021/10/13 01:27:18;;;;;;;1.30;1.10;;;9.30;98.00;;;;;;5019285;28;20571;-68
2021/10/13 01:29:48;;;;;;;1.57;1.20;;;9.30;98.00;;;;;;5055610;28;20461;-68
2021/10/13 01:32:18;;;;;;;1.20;1.00;;;9.30;98.00;;;;;;5055504;28;20490;-69
2021/10/13 01:34:52;;;;;;;1.20;1.03;;;9.30;98.00;;;;;;5055692;28;20892;-68
2021/10/13 01:37:26;;;;;;;1.50;1.20;;;9.30;98.00;;;;;;5055363;28;20485;-68
2021/10/13 01:39:56;;;;;;;1.83;1.10;;;9.20;98.00;;;;;;5037840;28;20458;-68
2021/10/13 01:42:25;;;;;;;1.20;1.00;;;9.10;98.00;;;;;;5055211;28;20466;-67
2021/10/13 01:44:58;;;;;;;1.40;1.30;;;9.10;98.00;;;;;;5055772;28;20492;-68
2021/10/13 01:47:27;;;;;;;1.20;1.00;;;9.10;98.00;;;;;;5055397;28;20478;-68
2021/10/13 01:49:57;;;;;;;1.20;1.00;;;9.00;98.00;;;;;;5055461;28;20453;-69
2021/10/13 01:52:26;;;;;;;1.20;1.03;;;9.00;98.00;;;;;;5055339;28;20874;-71
2021/10/13 01:54:57;;;;;;;1.20;1.00;;;9.00;98.00;;;;;;5054974;28;20504;-68
2021/10/13 01:57:26;;;;;;;1.67;1.10;;;8.90;98.00;;;;;;5055216;28;20546;-70
2021/10/13 01:59:57;;;;;;;1.40;1.10;;;8.90;98.00;;;;;;5054914;28;20543;-68
2021/10/13 02:02:29;;;;;;;1.40;1.20;;;8.90;98.00;;;;;;5054951;28;20936;-68
2021/10/13 02:04:58;;;;;;;1.20;1.00;;;8.90;98.00;;;;;;5054903;28;20462;-69
2021/10/13 02:07:34;;;;;;;1.30;1.23;;;8.90;98.00;;;;;;5054777;28;20830;-69
2021/10/13 02:10:05;;;;;;;1.53;1.10;;;8.90;98.00;;;;;;5054617;28;20463;-68
2021/10/13 02:12:34;;;;;;;1.40;1.17;;;8.80;98.00;;;;;;5054630;28;20494;-68
2021/10/13 02:15:05;;;;;;;1.20;1.10;;;8.80;98.00;;;;;;5053285;28;20458;-69
2021/10/13 02:17:33;;;;;;;1.20;1.00;;;8.70;98.00;;;;;;5054387;28;20583;-68
2021/10/13 02:20:03;;;;;;;1.30;1.20;;;8.70;98.00;;;;;;5054513;28;20478;-68
2021/10/13 02:22:32;;;;;;;1.50;1.20;;;8.70;98.00;;;;;;5054316;28;20459;-68
2021/10/13 02:25:00;;;;;;;1.30;1.00;;;8.70;98.00;;;;;;5054273;28;20467;-69
2021/10/13 02:27:31;;;;;;;1.23;1.03;;;8.60;98.00;;;;;;5054122;28;20567;-69
2021/10/13 02:29:58;;;;;;;1.20;1.00;;;8.70;98.00;;;;;;5053994;28;20517;-67
2021/10/13 02:32:28;;;;;;;1.30;1.10;;;8.80;98.00;;;;;;5054140;28;20495;-68
2021/10/13 02:34:58;;;;;;;1.40;1.10;;;9.00;98.00;;;;;;5054352;28;20456;-69
2021/10/13 02:37:25;;;;;;;1.20;1.00;;;8.90;98.00;;;;;;5054202;28;20518;-68
2021/10/13 02:39:52;;;;;;;1.50;1.10;;;8.70;98.00;;;;;;5054181;28;20462;-68
2021/10/13 02:42:19;;;;;;;1.30;1.30;;;8.60;98.00;;;;;;5054280;28;20457;-68
2021/10/13 02:44:46;;;;;;;1.27;1.07;;;8.60;98.00;;;;;;5054162;28;20465;-68
2021/10/13 02:47:17;;;;;;;1.20;1.10;;;8.60;98.00;;;;;;5054446;28;20496;-68
2021/10/13 02:49:55;;;;;;;1.50;1.10;;;8.70;98.00;;;;;;5036727;28;20462;-69
2021/10/13 02:52:31;;;;;;;1.80;1.13;;;8.60;98.00;;;;;;5054116;28;20482;-68
2021/10/13 02:55:01;;;;;;;1.50;1.10;;;8.70;98.00;;;;;;5036405;28;20457;-69
2021/10/13 02:57:34;;;;;;;1.20;1.10;;;8.60;98.00;;;;;;5054182;28;20570;-71
2021/10/13 03:00:04;;;;;;;1.73;1.10;;;8.60;98.00;;;;;;5054089;28;20455;-69
2021/10/13 03:02:35;;;;;;;1.20;1.00;;;8.60;98.00;;;;;;5053867;28;21018;-68
2021/10/13 03:05:03;;;;;;;1.20;1.10;;;8.60;98.00;;;;;;5036005;28;20490;-69
2021/10/13 03:07:43;;;;;;;1.20;1.00;;;8.60;98.00;;;;;;5053872;28;20859;-69
2021/10/13 03:10:10;;;;;;;1.50;1.40;;;8.60;98.00;;;;;;5053818;28;20465;-68
2021/10/13 03:12:42;;;;;;;1.20;1.00;;;8.70;98.00;;;;;;5053755;28;21010;-68
2021/10/13 03:15:11;;;;;;;1.20;0.90;;;8.70;98.00;;;;;;5053887;28;20486;-68
2021/10/13 03:17:40;;;;;;;1.20;1.00;;;8.70;98.00;;;;;;5053558;28;20515;-68
2021/10/13 03:20:12;;;;;;;1.20;1.00;;;8.70;98.00;;;;;;5053649;28;20546;-67
2021/10/13 03:22:39;;;;;;;1.20;1.00;;;8.80;98.00;;;;;;5053256;28;20585;-68
2021/10/13 03:25:07;;;;;;;4.50;1.57;;;8.70;98.00;;;;;;5053349;28;20451;-69
2021/10/13 03:27:34;;;;;;;1.30;1.10;;;8.60;98.00;;;;;;5035358;28;20475;-67
2021/10/13 03:30:01;;;;;;;1.30;1.10;;;8.50;98.00;;;;;;5053232;28;20463;-69
2021/10/13 03:32:28;;;;;;;2.60;1.17;;;8.50;98.00;;;;;;5052997;28;20481;-69
2021/10/13 03:34:55;;;;;;;2.03;1.30;;;8.30;98.00;;;;;;5053150;28;20457;-67
2021/10/13 03:37:23;;;;;;;1.30;1.30;;;8.30;98.00;;;;;;5052912;28;20485;-68
2021/10/13 03:39:53;;;;;;;1.17;0.97;;;8.50;98.00;;;;;;5052266;28;20519;-70
2021/10/13 03:42:20;;;;;;;1.17;0.90;;;8.60;98.00;;;;;;5053076;28;20536;-68
2021/10/13 03:44:47;;;;;;;1.30;1.10;;;8.60;98.00;;;;;;5053079;28;20895;-68
2021/10/13 03:47:14;;;;;;;1.53;1.20;;;8.60;98.00;;;;;;5052959;28;20464;-67
2021/10/13 03:49:41;;;;;;;1.20;1.00;;;8.60;98.00;;;;;;5035157;28;20521;-68
2021/10/13 03:52:09;;;;;;;1.77;1.33;;;8.50;98.00;;;;;;5052891;28;20489;-68
2021/10/13 03:54:37;;;;;;;1.20;1.00;;;8.50;98.00;;;;;;5052922;28;21060;-68
2021/10/13 03:57:04;;;;;;;1.20;1.10;;;8.40;98.00;;;;;;5052698;28;20535;-69
2021/10/13 03:59:31;;;;;;;2.23;1.30;;;8.40;98.00;;;;;;5052634;28;21035;-69
2021/10/13 04:01:58;;;;;;;1.37;1.20;;;8.50;98.00;;;;;;5052580;28;20486;-68
2021/10/13 04:04:26;;;;;;;1.47;1.27;;;8.60;98.00;;;;;;5035326;28;20487;-68
2021/10/13 04:06:54;;;;;;;1.20;1.00;;;8.60;98.00;;;;;;5052514;28;20534;-68
2021/10/13 04:09:21;;;;;;;1.63;1.20;;;8.60;98.00;;;;;;5052427;28;20493;-68
2021/10/13 04:11:49;;;;;;;1.20;0.93;;;8.60;98.00;;;;;;5052564;28;20462;-67
2021/10/13 04:14:16;;;;;;;1.60;1.57;;;8.70;98.00;;;;;;5052459;28;20499;-69
2021/10/13 04:16:43;;;;;;;1.20;1.00;;;8.70;98.00;;;;;;5052471;28;20454;-69
2021/10/13 04:19:10;;;;;;;1.70;1.20;;;8.80;98.00;;;;;;5052326;28;20597;-68
2021/10/13 04:21:37;;;;;;;1.20;1.10;;;8.80;98.00;;;;;;5052421;28;20493;-68
2021/10/13 04:24:05;;;;;;;1.20;0.90;;;8.80;98.00;;;;;;5052363;28;20484;-69
2021/10/13 04:26:32;;;;;;;1.30;1.07;;;8.80;98.00;;;;;;5052249;28;20491;-69
2021/10/13 04:29:01;;;;;;;1.40;1.20;;;8.80;98.00;;;;;;5052251;28;21043;-68
2021/10/13 04:31:28;;;;;;;1.20;1.00;;;8.80;98.00;;;;;;5034510;28;20488;-69
2021/10/13 04:33:55;;;;;;;1.40;1.30;;;8.80;98.00;;;;;;5052171;28;21011;-69
2021/10/13 04:36:23;;;;;;;2.07;1.20;;;8.80;98.00;;;;;;5034707;28;20489;-68
2021/10/13 04:38:51;;;;;;;1.20;1.00;;;8.80;98.00;;;;;;5052301;28;20486;-68
2021/10/13 04:41:19;;;;;;;1.20;1.00;;;8.90;98.00;;;;;;5034183;28;20791;-68
2021/10/13 04:43:47;;;;;;;1.93;1.10;;;9.00;98.00;;;;;;5052085;28;20499;-70
2021/10/13 04:46:16;;;;;;;1.27;1.20;;;9.00;98.00;;;;;;5034222;28;20493;-70
2021/10/13 04:48:43;;;;;;;1.60;1.27;;;9.00;98.00;;;;;;5033954;28;20949;-69
2021/10/13 04:51:10;;;;;;;1.30;1.20;;;8.80;98.00;;;;;;5034173;28;20464;-67
2021/10/13 04:53:37;;;;;;;1.30;1.10;;;8.70;98.00;;;;;;5051625;28;20467;-69
2021/10/13 04:56:04;;;;;;;1.67;1.43;;;8.80;98.00;;;;;;5051780;28;20528;-68
2021/10/13 04:58:31;;;;;;;3.30;1.20;;;8.90;98.00;;;;;;5051630;28;21066;-68
2021/10/13 05:00:58;;;;;;;1.20;1.00;;;8.80;98.00;;;;;;5051639;28;20487;-67
2021/10/13 05:03:27;;;;;;;1.20;1.00;;;8.80;98.00;;;;;;5033742;28;20498;-68
2021/10/13 05:05:54;;;;;;;1.77;1.20;;;8.80;98.00;;;;;;5051655;28;20504;-68
2021/10/13 05:08:22;;;;;;;1.20;1.07;;;8.80;98.00;;;;;;5050249;28;20469;-69
2021/10/13 05:10:51;;;;;;;1.40;1.10;;;8.70;98.00;;;;;;5051570;28;20535;-68
2021/10/13 05:13:18;;;;;;;3.97;1.20;;;8.60;98.00;;;;;;5033932;28;20517;-68
2021/10/13 05:15:45;;;;;;;1.20;1.00;;;8.50;98.00;;;;;;5051597;28;20489;-69
2021/10/13 05:18:12;;;;;;;1.20;1.00;;;8.60;98.00;;;;;;5051430;28;20526;-68
2021/10/13 05:20:41;;;;;;;1.63;1.10;;;8.60;98.00;;;;;;5051361;28;20514;-69
2021/10/13 05:23:08;;;;;;;1.20;1.00;;;8.70;98.00;;;;;;5051479;28;20492;-68
2021/10/13 05:25:35;;;;;;;1.20;1.00;;;8.70;98.00;;;;;;5051565;28;20503;-67
2021/10/13 05:28:02;;;;;;;1.23;1.03;;;8.70;98.00;;;;;;5033532;28;20462;-68
2021/10/13 05:30:29;;;;;;;1.20;1.00;;;8.60;98.00;;;;;;5051336;28;20446;-68
2021/10/13 05:32:56;;;;;;;1.20;0.90;;;8.50;98.00;;;;;;5051345;28;20467;-68
2021/10/13 05:35:23;;;;;;;3.23;1.10;;;8.60;98.00;;;;;;5033795;28;20461;-70
2021/10/13 05:37:52;;;;;;;1.20;0.90;;;8.50;98.00;;;;;;5033617;28;20832;-68
2021/10/13 05:40:19;;;;;;;1.30;1.10;;;8.40;98.00;;;;;;5051411;28;20830;-69
2021/10/13 05:42:47;;;;;;;1.60;1.20;;;8.40;98.00;;;;;;5051275;28;20962;-69
2021/10/13 05:45:14;;;;;;;1.50;1.20;;;8.50;98.00;;;;;;5051281;28;20464;-68
2021/10/13 05:47:41;;;;;;;1.37;1.00;;;8.50;98.00;;;;;;5051176;28;20518;-69
2021/10/13 05:50:08;;;;;;;1.87;1.10;;;8.50;98.00;;;;;;5051359;28;20466;-68
2021/10/13 05:52:35;;;;;;;1.80;1.40;;;8.50;98.00;;;;;;5051369;28;20498;-68
2021/10/13 05:55:04;;;;;;;1.20;1.10;;;8.50;98.00;;;;;;5051284;28;21004;-69
2021/10/13 05:57:31;;;;;;;1.20;1.00;;;8.60;98.00;;;;;;5051428;28;20488;-68
2021/10/13 05:59:58;;;;;;;1.20;1.00;;;8.60;98.00;;;;;;5051603;28;20459;-68
2021/10/13 06:02:27;;;;;;;1.40;1.27;;;8.60;98.00;;;;;;5051118;28;20456;-68
2021/10/13 06:04:54;;;;;;;1.87;1.37;;;8.60;98.00;;;;;;5054517;28;21170;-68
2021/10/13 06:07:21;;;;;;;1.30;1.10;;;8.60;98.00;;;;;;5036877;28;20803;-69
2021/10/13 06:09:48;;;;;;;2.20;1.43;;;8.70;98.00;;;;;;5054742;28;20490;-68
2021/10/13 06:12:17;;;;;;;1.20;1.00;;;8.70;98.00;;;;;;5054729;28;20460;-68
2021/10/13 06:14:44;;;;;;;1.43;1.20;;;8.70;98.00;;;;;;5054842;28;20456;-67
2021/10/13 06:17:11;;;;;;;1.30;1.10;;;8.80;98.00;;;;;;5054444;28;20500;-69
2021/10/13 06:19:38;;;;;;;1.20;1.03;;;8.90;98.00;;;;;;5036565;28;20582;-68
2021/10/13 06:22:05;;;;;;;1.33;1.23;;;8.90;98.00;;;;;;5037004;28;20470;-69
2021/10/13 06:24:32;;;;;;;1.60;1.17;;;9.00;98.00;;;;;;5036796;28;21103;-69
2021/10/13 06:26:59;;;;;;;1.33;1.00;;;8.90;98.00;;;;;;5054463;28;20507;-69
2021/10/13 06:29:27;;;;;;;1.20;1.13;;;9.00;98.00;;;;;;5054627;28;21000;-67
2021/10/13 06:31:54;;;;;;;1.80;1.27;;;9.10;98.00;;;;;;5054422;28;20493;-69
2021/10/13 06:34:21;;;;;;;1.60;1.50;;;9.20;98.00;;;;;;5054216;28;21000;-68
2021/10/13 06:36:49;;;;;;;1.20;1.00;;;9.30;98.00;;;;;;5054443;28;20463;-69
2021/10/13 06:39:16;;;;;;;1.20;1.00;;;9.40;98.00;;;;;;5054134;28;21069;-68
2021/10/13 06:41:43;;;;;;;1.40;1.13;;;9.40;98.00;;;;;;5054123;28;20558;-69
2021/10/13 06:44:12;;;;;;;1.20;1.00;;;9.50;98.00;;;;;;5054099;28;20465;-68
2021/10/13 06:46:41;;;;;;;3.40;1.57;;;9.40;98.00;;;;;;5053826;28;20546;-68
2021/10/13 06:49:08;;;;;;;1.67;1.30;;;9.20;98.00;;;;;;5053142;28;20885;-69
2021/10/13 06:51:35;;;;;;;1.90;1.37;;;9.30;98.00;;;;;;5053542;28;20551;-69
2021/10/13 06:54:02;;;;;;;1.20;1.00;;;9.40;98.00;;;;;;5053255;28;20514;-68
2021/10/13 06:56:31;;;;;;;1.40;1.00;;;9.30;98.00;;;;;;5036316;28;20459;-70
2021/10/13 06:58:58;;;;;;;1.30;1.20;;;9.20;98.00;;;;;;5053820;28;20486;-70
2021/10/13 07:01:25;;;;;;;1.37;1.30;;;9.30;98.00;;;;;;5053897;28;20550;-70
2021/10/13 07:03:54;;;;;;;1.40;1.20;;;9.20;98.00;;;;;;5053843;28;20459;-70
2021/10/13 07:06:21;;;;;;;1.70;1.03;;;9.10;98.00;;;;;;5053958;28;20454;-68
2021/10/13 07:08:48;;;;;;;1.20;1.00;;;8.90;98.00;;;;;;5053894;28;20496;-71
2021/10/13 07:11:15;;;;;;;1.20;1.00;;;8.80;98.00;;;;;;5054061;28;20454;-69
2021/10/13 07:13:42;;;;;;;1.23;1.07;;;8.70;98.00;;;;;;5053892;28;20469;-70
2021/10/13 07:16:09;;;;;;;1.50;1.47;;;8.90;98.00;;;;;;5053742;28;20458;-69
2021/10/13 07:18:37;;;;;;;1.43;1.17;;;9.10;98.00;;;;;;5053542;28;20967;-71
2021/10/13 07:21:05;;;;;;;2.33;1.30;;;9.00;98.00;;;;;;5053767;28;20484;-71
2021/10/13 07:23:33;;;;;;;1.20;1.00;;;9.00;98.00;;;;;;5053757;28;20497;-70
2021/10/13 07:26:00;;;;;;;1.20;1.10;;;8.90;98.00;;;;;;5053652;28;20454;-68
2021/10/13 07:28:28;;;;;;;4.47;1.47;;;8.70;98.00;;;;;;5053390;28;20477;-68
2021/10/13 07:30:55;;;;;;;1.63;1.10;;;8.60;98.00;;;;;;5053362;28;20459;-70
2021/10/13 07:33:22;;;;;;;2.13;1.43;;;8.50;98.00;;;;;;5051742;28;20472;-72
2021/10/13 07:35:50;;;;;;;1.20;1.00;;;8.60;98.00;;;;;;5051392;28;20458;-70
2021/10/13 07:38:21;;;;;;;1.20;1.20;;;8.60;98.00;;;;;;5052126;28;20523;-70
2021/10/13 07:40:50;;;;;;;1.00;0.90;;;9.10;98.00;;;;;;5060679;28;20456;-68
2021/10/13 07:43:18;;;;;;;1.10;1.10;;;10.20;98.00;;;;;;5040603;28;20544;-68
2021/10/13 07:45:45;;;;;;;1.60;1.10;;;11.30;98.00;;;;;;5046354;28;20566;-69
2021/10/13 07:48:12;;;;;;;1.93;1.30;;;11.60;98.00;;;;;;5046245;28;20486;-69
2021/10/13 07:50:39;;;;;;;1.90;1.40;;;11.40;98.00;;;;;;5049658;28;20516;-69
2021/10/13 07:53:08;;;;;;;1.83;1.10;;;11.30;98.00;;;;;;5059491;28;20525;-70
2021/10/13 07:55:37;;;;;;;3.10;1.10;;;11.30;98.00;;;;;;5060750;28;20456;-70
2021/10/13 07:58:04;;;;;;;1.57;1.20;;;11.10;98.00;;;;;;5067997;28;20453;-69
2021/10/13 08:00:30;;;;;;;2.53;1.90;;;11.00;98.00;;;;;;5058484;28;20779;-68
2021/10/13 08:03:01;;;;;;;1.20;0.97;;;10.70;98.00;;;;;;5047373;28;20474;-71
2021/10/13 08:05:28;;;;;;;1.80;1.20;;;10.70;98.00;;;;;;5045034;28;20481;-68
2021/10/13 08:07:55;;;;;;;1.20;1.20;;;10.80;98.00;;;;;;5059280;28;20511;-67
2021/10/13 08:10:22;;;;;;;1.30;1.00;;;10.80;98.00;;;;;;5060279;28;20838;-69
2021/10/13 08:12:59;;;;;;;1.67;1.23;;;10.70;98.00;;;;;;5059779;28;20458;-69
2021/10/13 08:15:26;;;;;;;1.40;1.30;;;10.30;98.00;;;;;;5042809;28;20503;-68
2021/10/13 08:17:54;;;;;;;2.07;1.50;;;9.90;98.00;;;;;;5058431;28;20454;-68
2021/10/13 08:20:21;;;;;;;1.87;1.40;;;9.70;98.00;;;;;;5059593;28;20878;-68
2021/10/13 08:22:48;;;;;;;1.20;1.03;;;9.80;98.00;;;;;;5060279;28;20479;-68
2021/10/13 08:25:16;;;;;;;1.30;1.10;;;9.90;98.00;;;;;;5051422;28;20453;-68
2021/10/13 08:27:43;;;;;;;1.20;1.00;;;10.10;98.00;;;;;;5050778;28;20457;-68
2021/10/13 08:30:12;;;;;;;2.97;1.80;;;10.20;98.00;;;;;;5051282;28;20619;-68
2021/10/13 08:32:39;;;;;;;1.60;1.20;;;10.20;98.00;;;;;;5059169;28;20493;-68
2021/10/13 08:35:08;;;;;;;2.03;1.60;;;10.30;98.00;;;;;;5067242;28;20473;-68
2021/10/13 08:37:35;;;;;;;1.50;1.37;;;10.50;98.00;;;;;;5052575;28;20876;-68
2021/10/13 08:40:03;;;;;;;2.50;1.80;;;10.50;98.00;;;;;;5059844;28;20568;-68
2021/10/13 08:42:30;;;;;;;1.63;1.30;;;10.60;98.00;;;;;;5058609;28;20503;-68
2021/10/13 08:44:57;;;;;;;1.20;0.90;;;10.50;98.00;;;;;;5051072;28;20464;-68
2021/10/13 08:47:26;;;;;;;1.50;1.30;;;10.50;98.00;;;;;;5056252;28;20478;-69
2021/10/13 08:49:53;;;;;;;1.40;1.13;;;10.60;98.00;;;;;;5059354;28;20489;-68
2021/10/13 08:52:20;;;;;;;1.30;1.20;;;10.40;98.00;;;;;;5050300;28;20506;-68
2021/10/13 08:54:47;;;;;;;1.20;1.00;;;10.30;98.00;;;;;;5058780;28;20484;-68
2021/10/13 08:57:20;;;;;;;3.40;1.30;;;10.30;98.00;;;;;;5059817;28;20459;-68
2021/10/13 08:59:48;;;;;;;1.30;1.10;;;10.30;98.00;;;;;;5042438;28;20532;-68
2021/10/13 09:02:16;;;;;;;1.33;1.20;;;10.30;98.00;;;;;;5051111;28;20535;-68
2021/10/13 09:05:02;;;;;;;1.20;1.00;;;10.30;98.00;;;;;;5059340;28;20488;-68
2021/10/13 09:07:29;;;;;;;1.30;1.13;;;10.30;98.00;;;;;;5049668;28;21119;-68
2021/10/13 09:09:56;;;;;;;1.30;1.10;;;10.30;98.00;;;;;;5058709;28;20522;-69
2021/10/13 09:12:30;;;;;;;1.60;1.17;;;10.30;98.00;;;;;;5050272;28;20948;-68
2021/10/13 09:15:15;;;;;;;1.20;0.90;;;10.40;98.00;;;;;;5058062;28;20465;-68
2021/10/13 09:17:58;;;;;;;1.20;1.00;;;10.60;98.00;;;;;;5057877;28;20457;-68
2021/10/13 09:20:29;;;;;;;1.50;1.40;;;10.80;98.00;;;;;;5057765;28;21149;-64
2021/10/13 09:23:06;;;;;;;1.20;1.10;;;11.30;98.00;;;;;;5066494;28;20492;-66
2021/10/13 09:25:34;;;;;;;2.70;1.40;;;11.30;98.00;;;;;;5051108;28;20466;-65
2021/10/13 09:28:02;;;;;;;1.30;1.20;;;11.60;98.00;;;;;;5058219;28;20572;-66
2021/10/13 09:30:35;;;;;;;1.20;1.00;;;11.60;98.00;;;;;;5059837;28;20461;-68
2021/10/13 09:33:14;;;;;;;1.43;1.10;;;11.50;98.00;;;;;;5058959;28;20459;-71
2021/10/13 09:35:45;;;;;;;1.30;1.10;;;11.20;98.00;;;;;;5068060;28;20457;-69
2021/10/13 09:38:14;;;;;;;1.20;1.00;;;11.20;98.00;;;;;;5065878;28;20458;-68
2021/10/13 09:40:41;;;;;;;1.60;1.37;;;11.00;98.00;;;;;;5063245;28;20473;-68
2021/10/13 09:43:27;;;;;;;5.03;1.70;;;11.00;98.00;;;;;;5071135;28;20464;-68
2021/10/13 09:46:02;;;;;;;2.50;1.53;;;11.00;98.00;;;;;;5054355;28;20457;-67
2021/10/13 09:48:37;;;;;;;1.40;1.10;;;10.70;98.00;;;;;;5062471;28;20950;-68
2021/10/13 09:51:21;;;;;;;2.13;1.97;;;10.60;98.00;;;;;;5051917;28;20460;-69
2021/10/13 09:53:50;;;;;;;1.63;1.40;;;10.30;98.00;;;;;;5063352;28;20488;-75
2021/10/13 09:56:35;;;;;;;3.40;1.57;;;10.30;98.00;;;;;;5062593;28;20495;-66
2021/10/13 09:59:14;;;;;;;1.40;1.40;;;10.30;98.00;;;;;;5052811;28;20596;-66
2021/10/13 10:01:43;;;;;;;1.40;1.10;;;10.30;98.00;;;;;;5039897;28;20941;-69
2021/10/13 10:04:14;;;;;;;1.70;1.47;;;10.40;98.00;;;;;;5061589;28;20475;-68
2021/10/13 10:06:51;;;;;;;1.20;1.10;;;10.20;98.00;;;;;;5059239;28;21138;-66
2021/10/13 10:09:20;;;;;;;2.03;1.10;;;10.10;98.00;;;;;;5067321;28;20873;-68
2021/10/13 10:11:48;;;;;;;1.20;1.10;;;10.20;98.00;;;;;;5054094;28;20884;-67
2021/10/13 10:14:43;;;;;;;1.20;1.17;;;10.20;98.00;;;;;;5057077;28;20544;-68
2021/10/13 10:17:11;;;;;;;1.20;1.10;;;10.40;98.00;;;;;;5061842;28;21118;-66
2021/10/13 10:19:42;;;;;;;1.20;1.00;;;10.90;98.00;;;;;;5055748;28;20531;-67
2021/10/13 10:22:13;;;;;;;1.20;1.00;;;11.40;98.00;;;;;;5069445;28;20484;-66
2021/10/13 10:24:49;;;;;;;1.30;1.20;;;11.60;98.00;;;;;;5054438;28;20478;-67
2021/10/13 10:27:31;;;;;;;1.20;1.00;;;11.90;98.00;;;;;;5053763;28;20563;-67
2021/10/13 10:30:02;;;;;;;1.83;1.10;;;12.20;98.00;;;;;;5053947;28;20498;-68
2021/10/13 10:32:36;;;;;;;1.20;1.10;;;12.60;98.00;;;;;;5061118;28;20791;-67
2021/10/13 10:35:12;;;;;;;1.30;1.13;;;12.80;98.00;;;;;;5062132;28;20525;-67
2021/10/13 10:37:42;;;;;;;1.23;1.13;;;13.10;98.00;;;;;;5061224;28;20525;-68
2021/10/13 10:40:12;;;;;;;1.70;1.40;;;13.40;98.00;;;;;;5069768;28;20529;-67
2021/10/13 10:43:01;;;;;;;1.30;1.20;;;13.30;98.00;;;;;;5049457;28;20615;-67
2021/10/13 10:45:31;;;;;;;1.50;1.20;;;13.40;98.00;;;;;;5052382;28;20450;-67
2021/10/13 10:48:10;;;;;;;1.40;1.20;;;13.60;98.00;;;;;;5063753;28;20945;-67
2021/10/13 10:50:43;;;;;;;1.30;1.17;;;14.10;98.00;;;;;;5056108;28;20463;-67
2021/10/13 10:53:37;;;;;;;1.77;1.37;;;14.30;98.00;;;;;;5052492;28;20464;-67
2021/10/13 10:56:29;;;;;;;1.63;1.50;;;14.40;98.00;;;;;;5054715;28;20470;-69
2021/10/13 10:59:02;;;;;;;1.87;1.43;;;14.40;98.00;;;;;;5045571;28;20461;-67
2021/10/13 11:01:31;;;;;;;1.30;1.30;;;13.90;98.00;;;;;;5043863;28;20480;-68
2021/10/13 11:03:58;;;;;;;1.20;1.00;;;13.40;98.00;;;;;;5034556;28;20486;-67
2021/10/13 11:06:27;;;;;;;1.63;1.33;;;12.90;98.00;;;;;;5059314;28;20449;-68
2021/10/13 11:08:59;;;;;;;1.20;1.00;;;12.40;98.00;;;;;;5069560;28;20470;-66
2021/10/13 11:11:29;;;;;;;1.20;1.10;;;12.30;98.00;;;;;;5063220;28;20933;-68
2021/10/13 11:13:59;;;;;;;1.20;1.10;;;12.30;98.00;;;;;;5053108;28;20461;-68
2021/10/13 11:16:27;;;;;;;1.20;1.10;;;12.40;98.00;;;;;;5067957;28;20453;-68
2021/10/13 11:19:05;;;;;;;1.20;1.07;;;12.40;98.00;;;;;;5062219;28;20459;-68
2021/10/13 11:21:32;;;;;;;1.40;1.10;;;12.60;98.00;;;;;;5052899;28;20542;-67
2021/10/13 11:24:08;;;;;;;1.53;1.40;;;13.00;98.00;;;;;;5060946;28;20509;-68
2021/10/13 11:29:01;;;;;;;3.20;1.87;;;13.40;98.00;;;;;;5263438;22;20520;-69
2021/10/13 11:31:28;;;;;;;2.13;1.50;;;13.80;98.00;;;;;;5068112;28;20208;-68
2021/10/13 11:34:08;;;;;;;2.57;1.77;;;14.00;98.00;;;;;;5059402;28;20455;-68
2021/10/13 11:36:54;;;;;;;1.20;1.10;;;14.20;98.00;;;;;;5060111;28;20456;-68
2021/10/13 11:39:25;;;;;;;2.10;1.60;;;14.30;98.00;;;;;;5041479;28;20454;-67
2021/10/13 11:41:53;;;;;;;1.30;1.10;;;14.20;98.00;;;;;;5065737;28;20468;-68
2021/10/13 11:44:21;;;;;;;1.40;1.37;;;13.90;98.00;;;;;;5051843;28;20645;-67
2021/10/13 11:47:00;;;;;;;1.20;1.00;;;13.50;98.00;;;;;;5061579;28;20500;-66
2021/10/13 11:49:28;;;;;;;1.50;1.20;;;13.00;98.00;;;;;;5063927;28;20493;-67
2021/10/13 11:52:12;;;;;;;1.90;1.27;;;12.70;98.00;;;;;;5064175;28;20516;-67
2021/10/13 11:54:41;;;;;;;1.20;1.10;;;12.50;98.00;;;;;;5052859;28;20491;-68
2021/10/13 11:57:09;;;;;;;1.20;1.07;;;12.80;98.00;;;;;;5060160;28;20460;-67
2021/10/13 11:59:37;;;;;;;1.30;1.10;;;13.00;98.00;;;;;;5066003;28;20474;-67
2021/10/13 12:02:15;;;;;;;1.30;1.20;;;13.40;98.00;;;;;;5061833;28;20464;-67
2021/10/13 12:04:48;;;;;;;1.40;1.10;;;13.80;98.00;;;;;;5060059;28;20976;-67
2021/10/13 12:07:24;;;;;;;1.20;1.10;;;14.10;98.00;;;;;;5051659;28;20862;-67
2021/10/13 12:10:00;;;;;;;1.50;1.30;;;14.00;98.00;;;;;;5060699;28;20487;-67
2021/10/13 12:12:28;;;;;;;1.30;1.00;;;14.00;98.00;;;;;;5040235;28;20884;-67
2021/10/13 12:14:56;;;;;;;1.20;1.03;;;14.10;98.00;;;;;;5051671;28;20489;-67
2021/10/13 12:17:28;;;;;;;3.00;1.30;;;14.00;98.00;;;;;;5059685;28;20776;-64
2021/10/13 12:19:56;;;;;;;2.13;1.20;;;13.80;98.00;;;;;;5052218;28;20482;-64
2021/10/13 12:22:23;;;;;;;1.23;1.10;;;13.60;98.00;;;;;;5060112;28;20511;-66
2021/10/13 12:24:51;;;;;;;1.37;1.30;;;13.60;98.00;;;;;;5068203;28;20494;-66
2021/10/13 12:27:33;;;;;;;1.73;1.00;;;13.60;98.00;;;;;;5052549;28;20507;-66
2021/10/13 12:30:00;;;;;;;1.97;1.40;;;13.60;98.00;;;;;;5046305;28;21302;-66
2021/10/13 12:32:29;;;;;;;1.20;1.07;;;13.60;98.00;;;;;;5058095;28;20504;-66
2021/10/13 12:35:13;;;;;;;1.33;1.10;;;13.60;98.00;;;;;;5050711;28;20468;-67
2021/10/13 12:37:49;;;;;;;1.20;1.00;;;13.60;98.00;;;;;;5059374;28;20533;-68
2021/10/13 12:40:18;;;;;;;1.20;1.10;;;13.30;98.00;;;;;;5046019;28;20527;-66
2021/10/13 12:42:46;;;;;;;1.20;1.10;;;13.20;98.00;;;;;;5047930;28;20554;-66
2021/10/13 12:45:13;;;;;;;1.20;1.00;;;13.00;98.00;;;;;;5063968;28;20555;-66
2021/10/13 12:47:40;;;;;;;1.20;1.00;;;13.30;98.00;;;;;;5059452;28;20485;-66
2021/10/13 12:50:17;;;;;;;1.30;1.10;;;13.60;98.00;;;;;;5063644;28;20539;-66
2021/10/13 12:52:44;;;;;;;1.20;1.00;;;13.80;98.00;;;;;;5061405;28;20475;-66
2021/10/13 12:55:11;;;;;;;1.27;1.10;;;14.10;98.00;;;;;;5030187;28;20479;-66
2021/10/13 12:57:38;;;;;;;1.40;1.20;;;14.30;95.90;;;;;;5054345;28;20460;-66
2021/10/13 13:00:09;;;;;;;1.20;1.00;;;14.50;95.70;;;;;;5062138;28;20495;-66
2021/10/13 13:02:36;;;;;;;1.20;1.10;;;14.80;95.90;;;;;;5059522;28;20558;-66
2021/10/13 13:05:04;;;;;;;1.30;1.17;;;15.00;96.10;;;;;;5056984;28;20452;-66
2021/10/13 13:07:32;;;;;;;1.27;1.27;;;15.10;96.20;;;;;;5054449;28;20492;-66
2021/10/13 13:09:59;;;;;;;1.20;1.00;;;14.90;95.70;;;;;;5064146;28;21121;-66